»·PEaware :: AAL316 KLAS-KBOI

AAL316 :: KLAS-KBOI

FLIGHT INFORMATION

Flight Status: Arrived
Operator:
American Airlines
More flights by this operator :: More flights under this callsign
Pilot: Robert A. (6703)
Aircraft: BOEING 737-300
(B733)
More flights by this aircraft type
Origin: KLAS McCarran Intl
United States
Destination: KBOI Boise Air Terminal/Gowen
United States
More flights between these airports :: More routes between these airports
Route: +TRALR9 MLF ELY BROPH SPUUD3
File this flight plan on PilotEdge
Remarks: / L DME MODE C RVSM
Altitude:
(Current/Filed)
33,000ft
Speed:
(Current/Filed)
430kts
Departed: 07-Feb-19 06:01 PM
Arrived: 07-Feb-19 07:38 PM
Distance/Time
Traveled:
452nm/1:37
Distance/Time
To Go:
Arrived

Flight Plot

Page will automatically refresh every two minutes.

Flight plan parsing failed; only flown route is shown


Map Options




Map Legend


Flown Route
Filed Route
Departure Airport
Arrival Airport
Navaid (VOR, NDB)
Fix

Horizontal Profiles

Position Reports

Time Latitude Longitude Heading Altitude Ground
Speed
07-Feb-19 17:33 36.079914 -115.139589 355 2072ft 0kts
07-Feb-19 17:34 36.079914 -115.139589 355 2072ft 0kts
07-Feb-19 17:35 36.079914 -115.139589 355 2072ft 0kts
07-Feb-19 17:36 36.079914 -115.139589 355 2072ft 0kts
07-Feb-19 17:37 36.079914 -115.139589 355 2072ft 0kts
07-Feb-19 17:38 36.079914 -115.139589 355 2072ft 0kts
07-Feb-19 17:39 36.079914 -115.139589 355 2072ft 0kts
07-Feb-19 17:40 36.079914 -115.139589 355 2072ft 0kts
07-Feb-19 17:41 36.079914 -115.139589 355 2072ft 0kts
07-Feb-19 17:42 36.079914 -115.139589 355 2072ft 0kts
07-Feb-19 17:43 36.079914 -115.139589 355 2072ft 0kts
07-Feb-19 17:44 36.079914 -115.139589 355 2072ft 0kts
07-Feb-19 17:45 36.079914 -115.139589 355 2072ft 0kts
07-Feb-19 17:46 36.079914 -115.139589 355 2072ft 0kts
07-Feb-19 17:47 36.079914 -115.139589 355 2072ft 0kts
07-Feb-19 17:48 36.079914 -115.139589 355 2072ft 0kts
07-Feb-19 17:49 36.079914 -115.139589 355 2072ft 0kts
07-Feb-19 17:50 36.079748 -115.138942 212 2070ft 0kts
07-Feb-19 17:51 36.079748 -115.138942 212 2070ft 0kts
07-Feb-19 17:52 36.079748 -115.138942 212 2070ft 0kts
07-Feb-19 17:53 36.079216 -115.139351 209 2073ft 6kts
07-Feb-19 17:54 36.078190 -115.141769 271 2081ft 12kts
07-Feb-19 17:55 36.078509 -115.147024 275 2098ft 19kts
07-Feb-19 17:56 36.078266 -115.153380 226 2123ft 14kts
07-Feb-19 17:57 36.078017 -115.157760 269 2139ft 18kts
07-Feb-19 17:58 36.077451 -115.161301 181 2153ft 0kts
07-Feb-19 17:59 36.076398 -115.159493 90 2149ft 40kts
07-Feb-19 18:00 36.076841 -115.112698 87 3095ft 172kts
07-Feb-19 18:01 36.076998 -115.048972 89 5325ft 196kts
07-Feb-19 18:02 36.076495 -114.966566 89 6926ft 273kts
07-Feb-19 18:03 36.090058 -114.871953 76 9822ft 287kts
07-Feb-19 18:04 36.108461 -114.762448 77 11418ft 351kts
07-Feb-19 18:05 36.128847 -114.640984 76 14105ft 368kts
07-Feb-19 18:06 36.150154 -114.513347 76 16534ft 385kts
07-Feb-19 18:07 36.172257 -114.380019 76 18747ft 402kts
07-Feb-19 18:08 36.195864 -114.241440 68 20741ft 415kts
07-Feb-19 18:09 36.246320 -114.110323 61 22583ft 427kts
07-Feb-19 18:10 36.298903 -113.975101 61 24297ft 441kts
07-Feb-19 18:11 36.353020 -113.835228 61 25863ft 454kts
07-Feb-19 18:12 36.408465 -113.691278 61 27312ft 466kts
07-Feb-19 18:13 36.493802 -113.583868 359 28579ft 439kts
07-Feb-19 18:14 36.614903 -113.563825 7 30357ft 440kts
07-Feb-19 18:15 36.734292 -113.528178 7 31821ft 440kts
07-Feb-19 18:16 36.853268 -113.492267 7 33120ft 439kts
07-Feb-19 18:17 36.951367 -113.462589 7 33338ft 444kts
07-Feb-19 18:18 37.043316 -113.434671 7 33325ft 439kts
07-Feb-19 18:19 37.132456 -113.407585 7 33307ft 436kts
07-Feb-19 18:20 37.225438 -113.379272 7 33327ft 436kts
07-Feb-19 18:21 37.317312 -113.351171 7 33320ft 437kts
07-Feb-19 18:22 37.468380 -113.303324 8 33220ft 449kts
07-Feb-19 18:23 37.640718 -113.247971 8 33246ft 452kts
07-Feb-19 18:24 37.762931 -113.208474 8 33245ft 452kts
07-Feb-19 18:25 37.885137 -113.168844 8 33245ft 452kts
07-Feb-19 18:26 38.007672 -113.128969 8 33257ft 452kts
07-Feb-19 18:27 38.129901 -113.089077 8 33253ft 452kts
07-Feb-19 18:28 38.252181 -113.049042 8 33300ft 452kts
07-Feb-19 18:29 38.373405 -113.032477 329 33286ft 421kts
07-Feb-19 18:30 38.435114 -113.150620 297 33305ft 409kts
07-Feb-19 18:31 38.496717 -113.273363 301 33296ft 409kts
07-Feb-19 18:32 38.560097 -113.394976 301 33298ft 409kts
07-Feb-19 18:33 38.623350 -113.516715 301 33298ft 409kts
07-Feb-19 18:34 38.686345 -113.638415 301 33298ft 409kts
07-Feb-19 18:35 38.749214 -113.760557 301 33300ft 409kts
07-Feb-19 18:36 38.812193 -113.883157 301 33264ft 409kts
07-Feb-19 18:37 38.874935 -114.005749 301 33224ft 409kts
07-Feb-19 18:39 38.937641 -114.128735 301 33216ft 408kts
07-Feb-19 18:40 38.999930 -114.251372 301 33218ft 407kts
07-Feb-19 18:41 39.061912 -114.373869 302 33216ft 406kts
07-Feb-19 18:42 39.123857 -114.496462 302 33212ft 406kts
07-Feb-19 18:43 39.185653 -114.619293 302 33218ft 406kts
07-Feb-19 18:44 39.247328 -114.742821 301 33219ft 406kts
07-Feb-19 18:45 39.319829 -114.852700 336 33204ft 417kts
07-Feb-19 18:46 39.440253 -114.850189 355 33225ft 434kts
07-Feb-19 18:47 39.561187 -114.850407 354 33217ft 432kts
07-Feb-19 18:48 39.681923 -114.851306 354 33218ft 432kts
07-Feb-19 18:49 39.802935 -114.852211 354 33217ft 432kts
07-Feb-19 18:50 39.923183 -114.853115 354 33217ft 432kts
07-Feb-19 18:51 40.044027 -114.854023 354 33218ft 432kts
07-Feb-19 18:52 40.164549 -114.854908 354 33218ft 432kts
07-Feb-19 18:53 40.285018 -114.855814 354 33267ft 432kts
07-Feb-19 18:54 40.405067 -114.856729 354 33287ft 432kts
07-Feb-19 18:55 40.525278 -114.857647 354 33271ft 431kts
07-Feb-19 18:55 40.625332 -114.858414 354 33271ft 432kts
07-Feb-19 18:57 40.765711 -114.859493 354 33272ft 431kts
07-Feb-19 18:58 40.885665 -114.860421 354 33272ft 431kts
07-Feb-19 18:58 40.985930 -114.861195 354 33275ft 431kts
07-Feb-19 18:59 41.086925 -114.861961 354 33272ft 420kts
07-Feb-19 19:00 41.210148 -114.862908 354 33268ft 416kts
07-Feb-19 19:02 41.345564 -114.863968 354 33274ft 416kts
07-Feb-19 19:02 41.441929 -114.864726 354 33271ft 417kts
07-Feb-19 19:03 41.558564 -114.865646 354 33272ft 417kts
07-Feb-19 19:04 41.674259 -114.866560 354 33270ft 417kts
07-Feb-19 19:05 41.790517 -114.867483 354 33274ft 416kts
07-Feb-19 19:06 41.906297 -114.868406 354 33313ft 416kts
07-Feb-19 19:07 42.022298 -114.869334 354 33326ft 416kts
07-Feb-19 19:08 42.138800 -114.870251 354 33308ft 416kts
07-Feb-19 19:09 42.254994 -114.871179 354 32831ft 418kts
07-Feb-19 19:10 42.336557 -114.871804 354 30742ft 406kts
07-Feb-19 19:11 42.381056 -114.872155 354 29493ft 395kts
07-Feb-19 19:12 42.460939 -114.872841 354 27693ft 407kts
07-Feb-19 19:13 42.571876 -114.874098 355 25086ft 391kts
07-Feb-19 19:14 42.679583 -114.875185 355 24311ft 385kts
07-Feb-19 19:15 42.751382 -114.934341 299 24333ft 375kts
07-Feb-19 19:16 42.816231 -115.023506 315 24330ft 349kts
07-Feb-19 19:17 42.884828 -115.114128 315 21670ft 344kts
07-Feb-19 19:18 42.952942 -115.209444 313 18661ft 353kts
07-Feb-19 19:19 43.021379 -115.308832 313 15636ft 358kts
07-Feb-19 19:20 43.090361 -115.409210 313 12605ft 359kts
07-Feb-19 19:21 43.156156 -115.504965 314 11303ft 311kts
07-Feb-19 19:22 43.211082 -115.585312 314 10888ft 319kts
07-Feb-19 19:23 43.265000 -115.665151 312 10209ft 270kts
07-Feb-19 19:24 43.301987 -115.753953 298 9914ft 264kts
07-Feb-19 19:25 43.335975 -115.844917 298 9921ft 264kts
07-Feb-19 19:26 43.369222 -115.934355 298 9271ft 256kts
07-Feb-19 19:27 43.401246 -116.020575 298 7920ft 242kts
07-Feb-19 19:28 43.432734 -116.105495 297 7562ft 247kts
07-Feb-19 19:29 43.463818 -116.189614 296 7063ft 245kts
07-Feb-19 19:30 43.492924 -116.275131 296 6562ft 244kts
07-Feb-19 19:31 43.540593 -116.329095 339 5385ft 229kts
07-Feb-19 19:32 43.598768 -116.355849 5 4432ft 213kts
07-Feb-19 19:33 43.630123 -116.315688 129 4136ft 147kts
07-Feb-19 19:34 43.595492 -116.293700 145 3436ft 129kts
07-Feb-19 19:35 43.574685 -116.255760 116 2945ft 126kts
07-Feb-19 19:36 43.562498 -116.220629 114 2852ft 60kts
07-Feb-19 19:37 43.565094 -116.217267 358 2855ft 7kts
07-Feb-19 19:38 43.566893 -116.219631 11 2851ft 1kts

Navigation Log

Ident Type
Flight plan parsing failed, navigation log unavailable